Time;durP1;ratioP1;P1;durP2;ratioP2;P2;SDS_P1;SDS_P2;PMS_P1;PMS_P2;Temp;Humidity;BMP_temperature;BMP_pressure;BME280_temperature;BME280_humidity;BME280_pressure;Samples;Min_cycle;Max_cycle;Signal;HPM_P1;HPM_P2
2023/08/05 00:02:18;;;;;;;6.68;5.68;;;;;;;23.84;51.00;94318.69;5113417;27;20039;-75
2023/08/05 00:04:44;;;;;;;6.32;5.53;;;;;;;23.79;50.47;94320.38;5114967;27;20477;-75
2023/08/05 00:07:09;;;;;;;6.55;5.95;;;;;;;23.71;50.62;94310.91;5113142;27;20024;-76
2023/08/05 00:09:35;;;;;;;6.18;5.45;;;;;;;23.50;50.96;94282.13;5115120;27;20046;-75
2023/08/05 00:12:00;;;;;;;6.60;5.70;;;;;;;23.26;52.41;94308.41;5132642;27;20716;-76
2023/08/05 00:14:25;;;;;;;7.05;5.68;;;;;;;23.39;51.25;94288.94;5108544;28;20084;-75
2023/08/05 00:16:51;;;;;;;6.75;5.50;;;;;;;23.49;51.77;94297.22;5122675;27;20019;-75
2023/08/05 00:19:16;;;;;;;8.85;5.93;;;;;;;23.48;51.77;94303.53;5095113;28;20054;-75
2023/08/05 00:21:41;;;;;;;7.70;5.68;;;;;;;23.43;51.88;94306.06;5114339;27;20027;-75
2023/08/05 00:24:07;;;;;;;6.15;5.53;;;;;;;23.33;51.97;94295.13;5114692;28;20035;-75
2023/08/05 00:26:32;;;;;;;6.40;5.47;;;;;;;23.30;51.97;94290.28;5116051;27;20015;-75
2023/08/05 00:28:58;;;;;;;6.65;5.95;;;;;;;23.22;51.96;94287.91;5102709;27;20421;-75
2023/08/05 00:31:23;;;;;;;7.13;5.78;;;;;;;23.23;51.98;94282.38;5096604;28;20028;-75
2023/08/05 00:33:48;;;;;;;7.65;5.90;;;;;;;23.16;51.78;94273.69;5106357;27;20023;-75
2023/08/05 00:36:14;;;;;;;6.60;5.80;;;;;;;23.23;52.07;94285.03;5129969;27;20520;-75
2023/08/05 00:38:39;;;;;;;7.47;5.70;;;;;;;23.17;52.49;94281.41;5119363;27;20031;-75
2023/08/05 00:41:05;;;;;;;7.90;5.93;;;;;;;23.00;52.27;94280.34;5102131;28;20035;-75
2023/08/05 00:43:30;;;;;;;7.32;5.70;;;;;;;23.07;52.71;94286.41;5097058;28;20028;-75
2023/08/05 00:45:56;;;;;;;7.03;5.80;;;;;;;23.03;52.47;94274.59;5117327;27;20016;-75
2023/08/05 00:48:22;;;;;;;7.00;5.53;;;;;;;23.08;52.41;94277.41;5133282;27;20073;-75
2023/08/05 00:50:47;;;;;;;6.95;6.00;;;;;;;22.72;53.39;94273.59;5133379;27;20389;-76
2023/08/05 00:53:14;;;;;;;6.47;5.60;;;;;;;22.96;52.70;94273.88;5098822;27;20031;-75
2023/08/05 00:55:40;;;;;;;7.25;5.75;;;;;;;23.06;52.37;94274.16;5130346;27;20027;-75
2023/08/05 00:58:05;;;;;;;6.78;5.68;;;;;;;23.00;52.85;94259.16;5133103;27;20042;-75
2023/08/05 01:00:30;;;;;;;6.40;5.80;;;;;;;23.05;52.50;94269.09;5124763;27;20036;-76
2023/08/05 01:02:57;;;;;;;6.43;5.82;;;;;;;23.10;52.27;94267.41;5080618;28;20156;-76
2023/08/05 01:05:22;;;;;;;6.43;5.18;;;;;;;23.13;52.75;94269.63;5115448;27;20112;-75
2023/08/05 01:07:48;;;;;;;5.82;5.25;;;;;;;23.16;51.45;94263.91;5095101;28;20378;-75
2023/08/05 01:10:13;;;;;;;7.00;5.63;;;;;;;23.24;51.61;94267.31;5113329;27;20038;-75
2023/08/05 01:12:41;;;;;;;8.38;5.47;;;;;;;23.16;52.29;94257.78;5098878;28;20025;-75
2023/08/05 01:15:07;;;;;;;7.10;5.53;;;;;;;23.04;52.86;94257.69;5111873;27;20504;-75
2023/08/05 01:17:32;;;;;;;10.35;6.32;;;;;;;23.00;52.56;94256.50;5129907;27;20023;-75
2023/08/05 01:19:58;;;;;;;6.57;5.93;;;;;;;23.08;53.02;94260.72;5129547;27;20027;-75
2023/08/05 01:22:26;;;;;;;6.30;5.65;;;;;;;22.99;52.91;94252.25;5121913;27;20488;-75
2023/08/05 01:25:03;;;;;;;5.95;5.45;;;;;;;22.64;53.86;94244.72;5095420;28;20036;-75
2023/08/05 01:27:28;;;;;;;6.40;5.80;;;;;;;22.78;53.42;94255.22;5107642;27;20027;-75
2023/08/05 01:29:54;;;;;;;6.68;5.55;;;;;;;22.67;53.74;94252.25;5111644;28;20047;-75
2023/08/05 01:32:19;;;;;;;6.70;5.68;;;;;;;22.64;53.30;94238.63;5099802;27;20034;-75
2023/08/05 01:34:45;;;;;;;6.57;5.80;;;;;;;22.74;52.84;94254.84;5107284;28;20039;-76
2023/08/05 01:37:10;;;;;;;6.30;5.50;;;;;;;22.70;53.06;94249.16;5112253;28;20028;-75
2023/08/05 01:39:36;;;;;;;7.82;5.60;;;;;;;22.78;52.63;94245.44;5095412;28;20091;-75
2023/08/05 01:42:01;;;;;;;7.05;5.53;;;;;;;22.78;52.34;94240.16;5124932;27;20405;-76
2023/08/05 01:44:27;;;;;;;7.05;5.40;;;;;;;22.77;52.69;94243.03;5099178;27;20027;-75
2023/08/05 01:46:52;;;;;;;9.60;5.85;;;;;;;22.74;52.77;94231.03;5113232;27;20028;-75
2023/08/05 01:49:17;;;;;;;8.10;5.75;;;;;;;22.96;52.36;94242.88;5102408;27;20475;-75
2023/08/05 01:51:43;;;;;;;6.78;5.88;;;;;;;22.95;52.30;94240.41;5133476;27;20421;-75
2023/08/05 01:54:08;;;;;;;7.25;5.47;;;;;;;22.93;51.94;94232.69;5132214;27;20092;-75
2023/08/05 01:56:34;;;;;;;5.50;4.95;;;;;;;22.92;52.41;94235.56;5121559;27;20061;-75
2023/08/05 01:58:59;;;;;;;6.15;5.55;;;;;;;23.07;52.11;94235.28;5082120;27;20042;-75
2023/08/05 02:01:44;;;;;;;6.90;5.32;;;;;;;23.04;51.83;94251.56;5111842;27;20404;-75
2023/08/05 02:04:09;;;;;;;6.97;5.53;;;;;;;22.94;52.16;94233.50;5111316;27;20588;-75
2023/08/05 02:06:34;;;;;;;6.18;5.57;;;;;;;22.88;52.14;94239.69;5131651;27;20023;-75
2023/08/05 02:09:00;;;;;;;6.07;5.47;;;;;;;23.01;52.00;94239.56;5109966;28;20062;-75
2023/08/05 02:11:25;;;;;;;6.45;5.22;;;;;;;22.84;52.29;94210.16;5112818;27;20024;-75
2023/08/05 02:13:51;;;;;;;9.27;5.60;;;;;;;22.87;52.25;94243.34;5121143;27;20031;-75
2023/08/05 02:16:16;;;;;;;6.93;5.60;;;;;;;22.79;52.76;94239.13;5128044;27;20023;-75
2023/08/05 02:18:41;;;;;;;6.72;5.68;;;;;;;22.71;53.04;94226.97;5130312;27;20043;-75
2023/08/05 02:21:07;;;;;;;6.30;5.70;;;;;;;22.67;52.77;94223.13;5097143;27;20497;-75
2023/08/05 02:23:32;;;;;;;6.07;5.47;;;;;;;22.39;53.62;94230.66;5130145;27;20042;-75
2023/08/05 02:25:57;;;;;;;6.25;5.65;;;;;;;22.51;53.52;94231.59;5119574;27;20076;-75
2023/08/05 02:28:23;;;;;;;6.22;5.63;;;;;;;22.42;53.24;94214.38;5132648;27;20028;-75
2023/08/05 02:30:48;;;;;;;6.03;5.53;;;;;;;22.69;52.70;94230.88;5115034;27;20515;-75
2023/08/05 02:33:14;;;;;;;7.38;5.65;;;;;;;22.61;53.11;94231.94;5129898;27;20031;-75
2023/08/05 02:35:39;;;;;;;6.00;5.40;;;;;;;22.57;53.13;94241.34;5112585;27;20019;-75
2023/08/05 02:38:04;;;;;;;6.50;5.85;;;;;;;22.66;52.71;94240.03;5127558;27;20035;-76
2023/08/05 02:40:33;;;;;;;7.32;5.95;;;;;;;22.73;52.88;94242.63;5122496;27;20027;-76
2023/08/05 02:42:58;;;;;;;6.30;5.43;;;;;;;22.68;53.06;94245.94;5112125;28;20060;-76
2023/08/05 02:45:24;;;;;;;6.22;5.63;;;;;;;22.72;52.72;94246.31;5128045;27;20026;-75
2023/08/05 02:47:49;;;;;;;6.70;5.88;;;;;;;22.63;53.06;94237.84;5098634;28;20462;-75
2023/08/05 02:50:15;;;;;;;6.20;5.60;;;;;;;22.67;53.00;94236.34;5107497;28;20077;-76
2023/08/05 02:52:40;;;;;;;7.18;5.57;;;;;;;22.51;52.81;94221.84;5110058;28;20024;-76
2023/08/05 02:55:06;;;;;;;6.60;5.88;;;;;;;22.50;53.16;94222.03;5129407;27;20038;-76
2023/08/05 02:57:31;;;;;;;6.43;5.70;;;;;;;22.44;53.19;94213.13;5132246;27;20031;-76
2023/08/05 02:59:57;;;;;;;7.43;5.93;;;;;;;22.45;53.35;94225.31;5131115;27;20080;-76
2023/08/05 03:02:22;;;;;;;7.07;5.88;;;;;;;22.49;52.96;94225.72;5122521;27;20023;-76
2023/08/05 03:04:47;;;;;;;7.20;5.80;;;;;;;22.50;53.21;94228.13;5118008;27;20079;-76
2023/08/05 03:07:13;;;;;;;6.75;5.50;;;;;;;22.50;53.05;94224.69;5114067;27;20495;-76
2023/08/05 03:09:38;;;;;;;6.80;6.00;;;;;;;22.52;53.45;94214.72;5120838;27;20036;-75
2023/08/05 03:12:07;;;;;;;5.90;5.38;;;;;;;22.28;53.44;94203.06;5120966;27;20031;-75
2023/08/05 03:14:33;;;;;;;6.05;5.53;;;;;;;22.39;53.60;94207.66;5113965;27;20042;-75
2023/08/05 03:16:58;;;;;;;6.80;6.10;;;;;;;21.92;53.18;94140.19;5113340;27;20062;-75
2023/08/05 03:19:24;;;;;;;7.05;5.32;;;;;;;22.45;53.03;94216.56;5112780;27;20031;-75
2023/08/05 03:21:50;;;;;;;6.25;5.30;;;;;;;22.39;53.22;94212.97;5127314;27;20458;-75
2023/08/05 03:24:15;;;;;;;7.13;5.97;;;;;;;22.30;53.32;94203.66;5124228;27;20085;-75
2023/08/05 03:26:40;;;;;;;6.25;5.65;;;;;;;22.42;53.21;94215.16;5110267;28;20032;-75
2023/08/05 03:29:06;;;;;;;6.85;5.60;;;;;;;22.37;53.09;94200.97;5094356;27;20421;-75
2023/08/05 03:31:31;;;;;;;7.55;5.57;;;;;;;22.25;53.37;94185.78;5117094;27;20077;-75
2023/08/05 03:33:56;;;;;;;7.45;5.60;;;;;;;22.33;53.66;94229.69;5130114;27;20415;-76
2023/08/05 03:36:22;;;;;;;7.28;5.35;;;;;;;22.47;53.23;94222.47;5128903;27;20034;-75
2023/08/05 03:38:47;;;;;;;6.78;5.72;;;;;;;22.37;53.34;94216.84;5129865;27;20035;-75
2023/08/05 03:41:13;;;;;;;6.68;5.78;;;;;;;22.39;53.56;94234.13;5096876;28;20035;-75
2023/08/05 03:43:38;;;;;;;7.18;5.60;;;;;;;22.55;53.15;94232.81;5110053;28;20036;-75
2023/08/05 03:46:03;;;;;;;6.38;5.65;;;;;;;22.39;53.70;94230.66;5109869;28;20036;-75
2023/08/05 03:48:29;;;;;;;6.50;5.80;;;;;;;22.48;52.57;94229.38;5120882;28;20043;-75
2023/08/05 03:50:55;;;;;;;6.80;5.50;;;;;;;22.37;53.07;94227.41;5130126;27;20047;-75
2023/08/05 03:53:22;;;;;;;6.72;5.82;;;;;;;22.38;53.62;94234.34;5131522;27;20035;-75
2023/08/05 03:55:47;;;;;;;5.85;5.22;;;;;;;22.27;54.20;94227.91;5129736;28;20110;-75
2023/08/05 03:58:13;;;;;;;5.75;5.10;;;;;;;22.24;54.17;94230.97;5108514;28;20477;-75
2023/08/05 04:00:42;;;;;;;7.95;5.65;;;;;;;22.28;53.81;94225.03;5113415;28;20023;-75
2023/08/05 04:03:07;;;;;;;6.30;5.70;;;;;;;22.30;54.54;94227.47;5093724;28;20488;-75
2023/08/05 04:05:33;;;;;;;6.55;5.80;;;;;;;22.29;54.76;94231.16;5114421;28;20038;-75
2023/08/05 04:07:58;;;;;;;6.32;5.72;;;;;;;22.09;54.95;94204.78;5127241;28;20080;-75
2023/08/05 04:10:24;;;;;;;7.55;5.38;;;;;;;22.23;54.85;94226.69;5111998;28;20420;-74
2023/08/05 04:12:50;;;;;;;6.47;5.78;;;;;;;22.22;55.48;94235.66;5117127;28;20023;-75
2023/08/05 04:15:17;;;;;;;6.00;5.43;;;;;;;22.50;55.00;94229.97;5126719;27;20042;-75
2023/08/05 04:17:44;;;;;;;6.13;5.53;;;;;;;22.78;52.96;94218.16;5117525;28;20023;-75
2023/08/05 04:20:11;;;;;;;6.45;5.45;;;;;;;23.18;51.43;94223.97;5092771;28;20185;-75
2023/08/05 04:22:38;;;;;;;7.40;6.18;;;;;;;23.50;51.96;94221.16;5102150;28;20027;-75
2023/08/05 04:25:04;;;;;;;6.18;5.50;;;;;;;23.64;51.08;94223.44;5113657;28;20023;-75
2023/08/05 04:27:30;;;;;;;6.40;5.80;;;;;;;24.22;49.80;94223.97;5108537;28;20485;-75
2023/08/05 04:29:56;;;;;;;7.20;5.50;;;;;;;24.82;48.84;94223.91;5120433;28;20039;-75
2023/08/05 04:32:21;;;;;;;6.25;5.65;;;;;;;24.80;47.79;94222.53;5122078;28;20508;-75
2023/08/05 04:34:46;;;;;;;5.95;5.28;;;;;;;24.76;48.12;94224.81;5119286;28;20020;-75
2023/08/05 04:37:21;;;;;;;6.00;5.40;;;;;;;24.71;48.34;94222.03;5115146;27;20031;-75
2023/08/05 04:39:47;;;;;;;7.18;5.50;;;;;;;25.23;47.16;94221.41;5092658;28;20032;-75
2023/08/05 04:42:12;;;;;;;5.97;5.38;;;;;;;25.96;44.25;94215.50;5110591;28;20038;-75
2023/08/05 04:44:40;;;;;;;5.88;5.28;;;;;;;26.90;42.94;94222.25;5113490;28;20115;-75
2023/08/05 04:47:06;;;;;;;6.15;5.35;;;;;;;27.82;41.03;94223.56;5096570;28;20100;-75
2023/08/05 04:49:32;;;;;;;6.47;5.47;;;;;;;28.42;39.09;94220.00;5112123;28;20040;-76
2023/08/05 04:51:57;;;;;;;6.40;5.10;;;;;;;29.30;38.62;94216.19;5113293;28;20028;-75
2023/08/05 04:54:22;;;;;;;7.55;5.32;;;;;;;29.97;36.08;94220.81;5116356;27;20026;-75
2023/08/05 04:56:48;;;;;;;6.68;4.90;;;;;;;29.89;36.29;94207.94;5096087;28;20124;-76
2023/08/05 04:59:13;;;;;;;6.13;4.60;;;;;;;29.86;35.99;94210.34;5114550;28;20027;-75
2023/08/05 05:01:39;;;;;;;5.90;5.05;;;;;;;30.14;35.52;94201.88;5113951;27;20493;-75
2023/08/05 05:04:04;;;;;;;7.68;5.20;;;;;;;30.37;36.78;94213.19;5114047;27;20031;-76
2023/08/05 05:06:29;;;;;;;6.97;5.00;;;;;;;30.32;35.41;94215.91;5124091;27;20020;-76
2023/08/05 05:08:55;;;;;;;5.78;5.05;;;;;;;29.51;36.10;94206.44;5125460;27;20027;-76
2023/08/05 05:11:20;;;;;;;5.32;4.68;;;;;;;29.44;36.49;94212.00;5126947;27;20027;-76
2023/08/05 05:13:50;;;;;;;6.50;5.43;;;;;;;29.36;37.18;94215.16;5101904;27;20080;-76
2023/08/05 05:16:17;;;;;;;5.22;4.57;;;;;;;29.20;37.48;94205.41;5124773;27;20028;-75
2023/08/05 05:18:42;;;;;;;8.02;5.15;;;;;;;29.44;37.06;94208.50;5112568;28;20035;-75
2023/08/05 05:21:08;;;;;;;6.93;4.95;;;;;;;29.19;36.74;94193.91;5097745;27;20031;-74
2023/08/05 05:23:33;;;;;;;5.80;5.00;;;;;;;28.41;37.87;94193.50;5121919;27;20523;-73
2023/08/05 05:25:59;;;;;;;5.53;4.90;;;;;;;28.31;37.63;94191.56;5115056;27;20031;-72
2023/08/05 05:28:24;;;;;;;5.03;4.63;;;;;;;28.28;37.96;94192.06;5133801;27;20023;-72
2023/08/05 05:30:49;;;;;;;5.68;4.90;;;;;;;28.40;38.14;94199.91;5131614;27;20416;-72
2023/08/05 05:33:15;;;;;;;5.57;4.90;;;;;;;28.26;38.51;94200.31;5130859;27;20038;-73
2023/08/05 05:35:40;;;;;;;6.47;5.50;;;;;;;28.14;38.26;94202.34;5125093;27;20031;-72
2023/08/05 05:38:06;;;;;;;5.35;4.85;;;;;;;28.28;38.12;94202.75;5132306;27;20023;-74
2023/08/05 05:40:31;;;;;;;5.20;4.70;;;;;;;27.85;38.58;94183.84;5129895;27;20027;-74
2023/08/05 05:42:56;;;;;;;9.18;4.88;;;;;;;28.03;38.67;94197.94;5141423;27;20036;-74
2023/08/05 05:45:22;;;;;;;7.55;5.07;;;;;;;28.03;38.38;94196.09;5132573;27;20042;-73
2023/08/05 05:47:48;;;;;;;5.35;4.85;;;;;;;27.94;38.51;94192.22;5131656;27;20037;-73
2023/08/05 05:50:13;;;;;;;5.35;4.82;;;;;;;27.95;38.74;94196.53;5111979;27;20060;-73
2023/08/05 05:52:39;;;;;;;5.70;5.00;;;;;;;27.41;39.38;94201.69;5128748;27;20514;-73
2023/08/05 05:55:05;;;;;;;8.88;5.78;;;;;;;27.63;39.46;94181.16;5115189;27;20099;-73
2023/08/05 05:57:30;;;;;;;6.13;5.07;;;;;;;27.88;39.08;94189.75;5113207;27;20068;-73
2023/08/05 05:59:56;;;;;;;7.03;4.97;;;;;;;28.06;38.63;94192.91;5124064;27;20032;-75
2023/08/05 06:02:21;;;;;;;7.25;5.03;;;;;;;28.23;39.16;94176.00;5123532;27;20622;-75
2023/08/05 06:04:47;;;;;;;6.90;5.30;;;;;;;27.89;38.93;94176.19;5108930;28;20035;-74
2023/08/05 06:07:13;;;;;;;5.55;5.05;;;;;;;28.13;38.50;94179.34;5099609;27;20031;-74
2023/08/05 06:09:38;;;;;;;5.68;4.88;;;;;;;28.13;39.00;94171.34;5128679;27;20580;-77
2023/08/05 06:12:04;;;;;;;6.30;5.55;;;;;;;28.11;38.70;94178.00;5131474;27;20431;-75
2023/08/05 06:14:29;;;;;;;5.53;5.03;;;;;;;27.98;38.88;94174.66;5125443;27;20024;-75
2023/08/05 06:16:55;;;;;;;5.78;5.18;;;;;;;28.02;38.74;94169.63;5118363;27;20041;-75
2023/08/05 06:19:20;;;;;;;5.70;5.03;;;;;;;27.80;39.40;94172.31;5128325;27;20477;-74
2023/08/05 06:21:46;;;;;;;6.40;5.40;;;;;;;27.83;39.58;94169.97;5130177;27;20091;-75
2023/08/05 06:24:11;;;;;;;6.22;5.15;;;;;;;27.99;39.42;94159.47;5131707;27;20078;-75
2023/08/05 06:26:37;;;;;;;6.47;4.97;;;;;;;28.07;38.42;94151.81;5132465;27;20258;-76
2023/08/05 06:29:02;;;;;;;6.60;4.95;;;;;;;28.09;38.40;94151.56;5106367;27;20468;-77
2023/08/05 06:31:28;;;;;;;7.28;5.10;;;;;;;28.26;38.18;94146.13;5127574;27;20027;-76
2023/08/05 06:33:53;;;;;;;5.55;4.95;;;;;;;28.64;37.51;94139.81;5131001;27;20039;-75
2023/08/05 06:36:19;;;;;;;6.00;5.40;;;;;;;28.63;37.96;94132.03;5125516;27;20031;-75
2023/08/05 06:38:44;;;;;;;6.82;5.10;;;;;;;28.74;37.17;94125.69;5093714;27;20031;-76
2023/08/05 06:41:10;;;;;;;5.97;5.22;;;;;;;28.86;37.16;94112.97;5113931;27;20027;-78
2023/08/05 06:43:35;;;;;;;6.10;5.18;;;;;;;28.98;37.05;94106.63;5111235;27;20039;-77
2023/08/05 06:46:00;;;;;;;5.80;5.20;;;;;;;29.31;36.24;94121.50;5128590;27;20047;-76
2023/08/05 06:48:26;;;;;;;6.13;5.15;;;;;;;29.10;37.17;94112.59;5098378;28;20058;-77
2023/08/05 06:50:51;;;;;;;6.90;5.15;;;;;;;29.46;36.93;94118.13;5110784;28;20111;-79
2023/08/05 06:53:17;;;;;;;6.15;5.20;;;;;;;29.53;36.55;94121.34;5119859;27;20034;-78
2023/08/05 06:55:42;;;;;;;7.47;5.50;;;;;;;29.78;36.27;94113.47;5098363;27;20039;-77
2023/08/05 06:58:08;;;;;;;5.78;5.20;;;;;;;30.09;35.00;94113.53;5117337;27;20035;-78
2023/08/05 07:00:33;;;;;;;8.98;5.43;;;;;;;29.10;36.58;94112.59;5095387;27;20428;-77
2023/08/05 07:03:01;;;;;;;6.45;5.50;;;;;;;29.16;36.28;94104.31;5105544;28;20057;-77
2023/08/05 07:05:26;;;;;;;8.43;5.38;;;;;;;29.38;36.16;94090.78;5095893;27;20031;-75
2023/08/05 07:07:52;;;;;;;6.47;5.75;;;;;;;29.58;36.51;94084.72;5107323;27;20028;-75
2023/08/05 07:10:17;;;;;;;6.45;5.80;;;;;;;29.77;36.41;94078.91;5112667;27;20054;-79
2023/08/05 07:12:42;;;;;;;8.50;5.22;;;;;;;29.88;36.34;94082.41;5118459;27;20023;-77
2023/08/05 07:15:08;;;;;;;6.47;5.45;;;;;;;29.68;36.04;94078.63;5111534;28;20035;-77
2023/08/05 07:17:35;;;;;;;6.00;5.40;;;;;;;29.97;35.81;94064.75;5093610;28;20032;-77
2023/08/05 07:20:00;;;;;;;8.57;6.22;;;;;;;29.30;36.55;94071.78;5093567;28;20126;-77
2023/08/05 07:22:26;;;;;;;8.13;5.40;;;;;;;29.67;35.95;94060.16;5110531;28;20481;-77
2023/08/05 07:24:54;;;;;;;6.00;5.40;;;;;;;30.15;35.15;94079.53;5107481;27;20024;-77
2023/08/05 07:27:20;;;;;;;6.18;5.53;;;;;;;29.98;35.86;94074.41;5107976;28;20568;-77
2023/08/05 07:29:45;;;;;;;6.03;5.50;;;;;;;30.12;36.38;94083.53;5080180;28;20019;-77
2023/08/05 07:32:11;;;;;;;8.65;5.60;;;;;;;30.31;34.99;94057.03;5107982;28;20042;-77
2023/08/05 07:34:36;;;;;;;6.55;5.80;;;;;;;29.94;35.49;94062.63;5111544;27;20019;-77
2023/08/05 07:37:02;;;;;;;6.88;5.88;;;;;;;30.20;35.40;94060.75;5096809;28;20039;-77
2023/08/05 07:39:33;;;;;;;8.93;5.60;;;;;;;30.12;35.98;94067.47;5105747;28;20035;-78
2023/08/05 07:42:03;;;;;;;8.85;5.88;;;;;;;29.89;36.16;94047.34;5107839;28;20115;-78
2023/08/05 07:44:31;;;;;;;6.50;5.45;;;;;;;29.84;35.47;94061.53;5101822;28;20123;-77
2023/08/05 07:46:57;;;;;;;7.75;5.70;;;;;;;29.93;36.06;94044.97;5083467;28;20118;-77
2023/08/05 07:49:23;;;;;;;7.20;5.93;;;;;;;29.83;35.88;94049.22;5073897;28;20051;-77
2023/08/05 07:51:50;;;;;;;6.43;5.80;;;;;;;29.56;35.55;94029.84;5108158;28;20028;-77
2023/08/05 07:54:16;;;;;;;7.20;5.70;;;;;;;29.58;34.55;94039.22;5108104;28;20031;-77
2023/08/05 07:56:42;;;;;;;7.45;6.07;;;;;;;29.76;35.39;94021.13;5108006;28;20055;-77
2023/08/05 07:59:07;;;;;;;6.72;6.10;;;;;;;29.84;35.50;94034.78;5108048;28;20031;-76
2023/08/05 08:01:33;;;;;;;6.75;6.00;;;;;;;30.12;35.06;94039.91;5091052;28;20054;-74
2023/08/05 08:04:02;;;;;;;6.70;5.88;;;;;;;30.24;34.06;94038.56;5074865;28;20088;-74
2023/08/05 08:06:28;;;;;;;7.97;5.95;;;;;;;30.43;34.01;94040.72;5092243;28;20050;-74
2023/08/05 08:08:53;;;;;;;6.88;5.97;;;;;;;30.45;34.56;94038.53;5091247;28;20489;-74
2023/08/05 08:11:19;;;;;;;6.03;5.35;;;;;;;30.37;34.03;94045.28;5108631;28;20028;-74
2023/08/05 08:13:44;;;;;;;6.68;5.85;;;;;;;30.45;34.18;94043.91;5092727;28;20028;-74
2023/08/05 08:16:09;;;;;;;6.80;6.10;;;;;;;30.06;34.44;94036.38;5093783;28;20454;-74
2023/08/05 08:18:35;;;;;;;8.10;6.45;;;;;;;30.27;34.52;94030.00;5096844;28;20092;-74
2023/08/05 08:21:00;;;;;;;6.57;5.97;;;;;;;30.61;34.14;94034.78;5113815;28;20035;-74
2023/08/05 08:23:26;;;;;;;8.70;6.10;;;;;;;29.86;33.96;93977.50;5129855;27;20520;-74
2023/08/05 08:25:51;;;;;;;6.90;6.15;;;;;;;30.31;33.76;94006.16;5114951;28;20035;-74
2023/08/05 08:28:17;;;;;;;6.85;5.90;;;;;;;30.67;33.59;94017.63;5114970;28;20023;-74
2023/08/05 08:30:55;;;;;;;6.40;5.90;;;;;;;30.75;33.62;94005.53;5096684;28;20039;-74
2023/08/05 08:33:25;;;;;;;6.57;5.97;;;;;;;30.83;33.81;94020.28;5080124;28;20130;-74
2023/08/05 08:35:50;;;;;;;9.07;6.67;;;;;;;30.82;34.04;94016.81;5096680;28;20715;-74
2023/08/05 08:38:16;;;;;;;6.93;6.32;;;;;;;30.92;33.80;94022.16;5096281;28;20309;-74
2023/08/05 08:40:49;;;;;;;7.95;6.40;;;;;;;31.04;33.70;94029.91;5096483;28;20492;-74
2023/08/05 08:43:19;;;;;;;6.65;6.05;;;;;;;31.41;33.16;94017.16;5096866;28;20045;-74
2023/08/05 08:45:46;;;;;;;7.55;6.70;;;;;;;31.21;33.33;94028.75;5079842;28;20119;-74
2023/08/05 08:48:11;;;;;;;10.13;6.63;;;;;;;31.08;34.13;94008.69;5112998;28;20104;-74
2023/08/05 08:50:37;;;;;;;7.18;6.47;;;;;;;31.34;34.12;94025.47;5079163;28;20028;-74
2023/08/05 08:53:03;;;;;;;7.30;6.60;;;;;;;31.52;34.24;94016.81;5079128;28;20043;-74
2023/08/05 08:55:29;;;;;;;7.03;6.43;;;;;;;31.60;34.04;94010.88;5079210;28;20038;-73
2023/08/05 08:57:57;;;;;;;7.28;6.57;;;;;;;31.86;33.23;94013.38;5112978;28;20497;-73
2023/08/05 09:00:22;;;;;;;7.47;6.78;;;;;;;31.85;33.76;94016.38;5079695;28;20035;-73
2023/08/05 09:02:48;;;;;;;7.05;6.43;;;;;;;31.81;34.08;93991.94;5095923;28;20500;-73
2023/08/05 09:05:13;;;;;;;7.72;6.90;;;;;;;32.20;32.77;94007.25;5112823;28;20074;-73
2023/08/05 09:07:39;;;;;;;7.88;6.93;;;;;;;32.09;33.30;94008.41;5078852;28;20027;-73
2023/08/05 09:10:05;;;;;;;9.82;6.72;;;;;;;32.17;32.83;93989.81;5095706;28;20489;-73
2023/08/05 09:12:31;;;;;;;7.70;7.00;;;;;;;32.10;33.05;93985.88;5095790;28;20043;-73
2023/08/05 09:14:57;;;;;;;7.15;6.55;;;;;;;32.44;32.79;94008.13;5095725;28;20099;-74
2023/08/05 09:17:22;;;;;;;7.70;7.00;;;;;;;32.69;32.18;94009.00;5078783;28;20035;-73
2023/08/05 09:19:48;;;;;;;7.35;6.60;;;;;;;32.66;31.93;93971.94;5078839;28;20032;-73
2023/08/05 09:22:13;;;;;;;7.75;6.95;;;;;;;32.11;32.25;93941.81;5095591;28;20144;-73
2023/08/05 09:24:38;;;;;;;7.63;6.78;;;;;;;32.31;32.81;93956.94;5095718;28;20093;-73
2023/08/05 09:27:04;;;;;;;9.07;7.45;;;;;;;32.33;32.61;93939.44;5095503;28;20023;-73
2023/08/05 09:29:30;;;;;;;8.40;7.43;;;;;;;32.31;32.22;93946.19;5094679;28;20043;-72
2023/08/05 09:32:00;;;;;;;7.80;7.13;;;;;;;32.21;33.19;93944.41;5112416;28;20397;-73
2023/08/05 09:34:37;;;;;;;8.38;7.53;;;;;;;32.69;32.88;93992.88;5078936;28;20453;-73
2023/08/05 09:37:02;;;;;;;8.10;7.30;;;;;;;32.71;32.95;93991.50;5080120;27;20145;-73
2023/08/05 09:39:45;;;;;;;8.20;7.40;;;;;;;33.02;32.81;93995.75;5097401;27;20114;-74
2023/08/05 09:42:24;;;;;;;8.13;7.32;;;;;;;32.90;32.39;93982.66;5098957;27;20409;-73
2023/08/05 09:44:53;;;;;;;7.82;7.13;;;;;;;32.68;32.79;93981.31;5099423;27;20042;-73
2023/08/05 09:47:23;;;;;;;9.98;7.00;;;;;;;32.10;32.95;93902.63;5099057;27;20099;-73
2023/08/05 09:49:49;;;;;;;7.70;6.73;;;;;;;32.43;33.63;93982.34;5098358;27;20103;-73
2023/08/05 09:52:17;;;;;;;8.32;7.60;;;;;;;32.42;33.24;93972.66;5132367;27;20801;-73
2023/08/05 09:54:51;;;;;;;7.88;7.10;;;;;;;32.56;33.57;93966.66;5115762;27;20563;-73
2023/08/05 09:57:18;;;;;;;8.48;7.65;;;;;;;32.37;33.93;93964.66;5116721;27;20461;-72
2023/08/05 09:59:43;;;;;;;7.97;7.20;;;;;;;32.49;34.01;93975.84;5133963;27;20027;-73
2023/08/05 10:02:11;;;;;;;8.02;7.32;;;;;;;32.76;33.66;93974.47;5098165;27;20424;-73
2023/08/05 10:04:37;;;;;;;7.90;7.10;;;;;;;32.89;32.80;93949.59;5115365;27;20105;-74
2023/08/05 10:07:03;;;;;;;7.90;7.10;;;;;;;32.78;32.71;93968.84;5132271;27;20469;-73
2023/08/05 10:09:28;;;;;;;8.00;7.25;;;;;;;32.77;33.67;93972.63;5115068;27;20514;-74
2023/08/05 10:11:54;;;;;;;7.88;7.07;;;;;;;32.59;32.86;93915.00;5115061;27;20035;-73
2023/08/05 10:14:19;;;;;;;8.18;7.35;;;;;;;32.77;33.72;93969.94;5115107;27;20031;-73
2023/08/05 10:16:45;;;;;;;7.85;6.95;;;;;;;32.56;33.40;93959.38;5132091;27;20050;-74
2023/08/05 10:19:10;;;;;;;7.82;7.05;;;;;;;32.48;33.91;93960.00;5097971;27;20095;-72
2023/08/05 10:21:41;;;;;;;9.90;7.43;;;;;;;32.12;34.62;93971.06;5114817;27;20507;-73
2023/08/05 10:24:06;;;;;;;7.55;6.93;;;;;;;32.19;34.69;93963.47;5133319;27;20027;-73
2023/08/05 10:26:46;;;;;;;7.82;7.03;;;;;;;32.24;34.84;93957.28;5114778;27;20041;-73
2023/08/05 10:29:28;;;;;;;8.57;6.90;;;;;;;32.19;35.34;93946.56;5115482;27;20037;-73
2023/08/05 10:32:14;;;;;;;7.88;7.07;;;;;;;32.19;34.82;93970.75;5131739;27;20057;-73
2023/08/05 10:34:39;;;;;;;7.50;6.80;;;;;;;32.13;35.26;93929.69;5097780;27;20416;-74
2023/08/05 10:37:05;;;;;;;7.70;7.00;;;;;;;32.19;34.07;93917.03;5114416;27;20066;-74
2023/08/05 10:39:40;;;;;;;7.10;6.40;;;;;;;32.66;33.61;93948.53;5113710;28;20032;-73
2023/08/05 10:42:20;;;;;;;7.38;6.70;;;;;;;32.77;33.89;93951.91;5114586;27;20035;-73
2023/08/05 10:44:48;;;;;;;6.88;6.30;;;;;;;32.67;34.02;93949.31;5114726;27;20027;-71
2023/08/05 10:47:13;;;;;;;7.28;6.57;;;;;;;32.68;34.27;93938.31;5114302;27;20038;-74
2023/08/05 10:49:39;;;;;;;8.13;6.72;;;;;;;32.79;34.03;93940.84;5097040;27;20051;-77
2023/08/05 10:52:05;;;;;;;7.10;6.50;;;;;;;32.55;33.75;93938.19;5114358;27;20027;-77
2023/08/05 10:54:33;;;;;;;8.40;6.60;;;;;;;32.63;34.88;93932.97;5114429;27;20104;-77
2023/08/05 10:56:58;;;;;;;7.60;6.53;;;;;;;32.71;33.94;93921.59;5114903;27;20062;-74
2023/08/05 10:59:24;;;;;;;6.97;6.20;;;;;;;32.93;33.22;93929.13;5107177;28;20024;-75
2023/08/05 11:01:56;;;;;;;7.10;6.50;;;;;;;32.83;33.55;93923.06;5108855;28;20043;-74
2023/08/05 11:04:31;;;;;;;8.30;6.18;;;;;;;32.82;33.95;93918.78;5108654;28;20038;-73
2023/08/05 11:06:59;;;;;;;7.25;6.32;;;;;;;32.93;33.51;93920.25;5075667;28;20441;-73
2023/08/05 11:09:25;;;;;;;7.32;6.60;;;;;;;32.83;33.96;93878.16;5110259;28;20039;-72
2023/08/05 11:11:51;;;;;;;6.88;6.28;;;;;;;32.99;33.51;93864.50;5093105;28;20063;-72
2023/08/05 11:14:16;;;;;;;7.70;6.90;;;;;;;33.11;33.08;93921.41;5093254;28;20057;-72
2023/08/05 11:16:48;;;;;;;7.75;7.05;;;;;;;33.05;32.70;93922.56;5127067;27;20024;-72
2023/08/05 11:19:14;;;;;;;7.57;6.93;;;;;;;32.78;33.27;93894.34;5093811;28;20028;-74
2023/08/05 11:21:44;;;;;;;7.05;6.35;;;;;;;32.21;33.72;93847.72;5076883;28;20106;-74
2023/08/05 11:24:18;;;;;;;7.28;6.57;;;;;;;32.61;34.01;93891.34;5076648;28;20221;-74
2023/08/05 11:26:44;;;;;;;10.05;6.80;;;;;;;32.83;33.13;93891.59;5092863;28;20023;-74
2023/08/05 11:29:10;;;;;;;7.70;7.00;;;;;;;32.82;33.24;93878.44;5111736;28;20030;-74
2023/08/05 11:31:35;;;;;;;9.23;7.18;;;;;;;32.76;33.30;93895.72;5111409;28;20032;-74